This is the latest recevied weather packets stored in our database for station/object SQ9IWE-13. If no packets are shown the sender has not sent any weather packets the latest 10 day(s).
| Time | Temp. | Humidity | Pressure | Rain* | Wind** | Luminosity | Snow |
|---|---|---|---|---|---|---|---|
| 1777607400 | 8.33° C | 65% | 1026.5 hPa | - | - | - | - |
| 1777606800 | 8.33° C | 65% | 1026.6 hPa | - | - | - | - |
| 1777606201 | 8.33° C | 64% | 1026.5 hPa | - | - | - | - |
| 1777605601 | 8.33° C | 64% | 1026.7 hPa | - | - | - | - |
| 1777605001 | 8.33° C | 64% | 1026.5 hPa | - | - | - | - |
| 1777604401 | 8.33° C | 63% | 1026.7 hPa | - | - | - | - |
| 1777603801 | 8.33° C | 65% | 1026.6 hPa | - | - | - | - |
| 1777603201 | 8.33° C | 67% | 1026.7 hPa | - | - | - | - |
| 1777602601 | 8.33° C | 67% | 1026.8 hPa | - | - | - | - |
| 1777602001 | 8.33° C | 67% | 1026.7 hPa | - | - | - | - |
| 1777587001 | 8.89° C | 54% | 1027.1 hPa | - | - | - | - |
| 1777586401 | 8.89° C | 54% | 1027.2 hPa | - | - | - | - |
| 1777585805 | 8.89° C | 54% | 1027.2 hPa | - | - | - | - |
| 1777585201 | 9.44° C | 53% | 1027.3 hPa | - | - | - | - |
| 1777584601 | 9.44° C | 53% | 1027.4 hPa | - | - | - | - |
| 1777584001 | 8.89° C | 53% | 1027.4 hPa | - | - | - | - |
| 1777582801 | 8.89° C | 52% | 1027.5 hPa | - | - | - | - |
| 1777581000 | 8.89° C | 52% | 1027.4 hPa | - | - | - | - |
| 1777576201 | 10.56° C | 44% | 1027.4 hPa | - | - | - | - |
| 1777573801 | 11.11° C | 42% | 1027 hPa | - | - | - | - |
| 1777573201 | 11.11° C | 42% | 1027.2 hPa | - | - | - | - |
| 1777572601 | 11.11° C | 42% | 1027.1 hPa | - | - | - | - |
| 1777570201 | 11.67° C | 38% | 1026.8 hPa | - | - | - | - |
| 1777569601 | 11.67° C | 38% | 1026.8 hPa | - | - | - | - |
| 1777566001 | 12.78° C | 33% | 1026.7 hPa | - | - | - | - |
* Rain since midnight (hover to see other rain measurements)
** Current wind speed in m/s (hover to see current wind gust speed)